createdAt,value
2019-01-22T00:01:02.864Z,47.50
2019-01-22T00:03:34.918Z,45.97
2019-01-22T00:06:04.501Z,46.07
2019-01-22T00:08:36.296Z,44.10
2019-01-22T00:11:09.577Z,43.10
2019-01-22T00:13:44.426Z,43.70
2019-01-22T00:16:14.809Z,43.67
2019-01-22T00:18:44.321Z,43.00
2019-01-22T00:21:16.299Z,46.87
2019-01-22T00:23:46.226Z,46.30
2019-01-22T00:26:17.850Z,47.38
2019-01-22T00:28:48.900Z,46.90
2019-01-22T00:31:19.971Z,45.10
2019-01-22T00:33:49.404Z,42.20
2019-01-22T00:36:21.134Z,41.33
2019-01-22T00:38:50.588Z,45.60
2019-01-22T00:41:20.386Z,44.33
2019-01-22T00:43:52.549Z,46.90
2019-01-22T00:46:21.945Z,45.65
2019-01-22T00:48:51.368Z,44.40
2019-01-22T00:51:21.448Z,45.50
2019-01-22T00:53:51.706Z,47.27
2019-01-22T00:56:22.112Z,47.73
2019-01-22T00:58:51.512Z,47.37
2019-01-22T01:01:21.507Z,46.58
2019-01-22T01:03:55.402Z,46.30
2019-01-22T01:06:24.753Z,45.58
2019-01-22T01:08:54.734Z,46.53
2019-01-22T01:11:25.601Z,44.53
2019-01-22T01:13:55.013Z,42.30
2019-01-22T01:16:30.240Z,43.90
2019-01-22T01:19:00.521Z,45.07
2019-01-22T01:21:34.775Z,45.20
2019-01-22T01:24:04.242Z,43.40
2019-01-22T01:26:34.527Z,44.90
2019-01-22T01:29:03.872Z,44.47
2019-01-22T01:31:33.679Z,44.57
2019-01-22T01:34:06.447Z,47.07
2019-01-22T01:36:38.510Z,47.50
2019-01-22T01:39:08.347Z,48.77
2019-01-22T01:41:38.268Z,47.90
2019-01-22T01:44:11.166Z,47.20
2019-01-22T01:46:40.561Z,48.27
2019-01-22T01:49:15.828Z,50.40
2019-01-22T01:51:45.220Z,47.97
2019-01-22T01:54:16.357Z,46.73
2019-01-22T01:56:50.358Z,48.17
2019-01-22T01:59:19.753Z,49.93
2019-01-22T02:01:49.152Z,48.50
2019-01-22T02:04:18.586Z,46.80
2019-01-22T02:06:47.960Z,46.33
2019-01-22T02:09:18.502Z,48.23
2019-01-22T02:11:48.318Z,48.20
2019-01-22T02:14:22.805Z,47.83
2019-01-22T02:17:16.003Z,48.10
2019-01-22T02:20:08.286Z,46.23
2019-01-22T02:23:13.728Z,47.80
2019-01-22T02:26:07.373Z,45.95
2019-01-22T02:29:12.919Z,44.50
2019-01-22T02:32:20.593Z,45.90
2019-01-22T02:35:22.008Z,45.50
2019-01-22T02:38:25.564Z,44.50
2019-01-22T02:41:36.751Z,46.70
2019-01-22T02:45:08.879Z,44.93
2019-01-22T02:48:02.733Z,44.25
2019-01-22T02:51:13.222Z,45.75
2019-01-22T02:54:30.973Z,43.37
2019-01-22T02:57:46.933Z,42.27
2019-01-22T03:01:05.785Z,44.85
2019-01-22T03:03:50.146Z,44.88
2019-01-22T03:06:59.992Z,43.80
2019-01-22T03:09:47.296Z,43.50
2019-01-22T03:13:19.333Z,42.35
2019-01-22T03:16:24.448Z,42.23
2019-01-22T03:19:12.653Z,42.10
2019-01-22T03:22:50.245Z,43.33
2019-01-22T03:25:57.872Z,43.60
2019-01-22T03:29:21.862Z,45.73
2019-01-22T03:32:07.852Z,42.07
2019-01-22T03:35:34.110Z,43.40
2019-01-22T03:38:43.934Z,43.13
2019-01-22T03:41:59.308Z,46.43
2019-01-22T03:45:04.866Z,45.10
2019-01-22T03:47:59.052Z,46.13
2019-01-22T03:50:48.008Z,44.73
2019-01-22T03:53:53.530Z,47.40
2019-01-22T03:57:10.923Z,42.20
2019-01-22T03:59:41.547Z,39.37
2019-01-22T04:02:14.334Z,45.03
2019-01-22T04:04:44.616Z,41.67
2019-01-22T04:07:15.611Z,40.80
2019-01-22T04:10:16.593Z,44.33
2019-01-22T04:12:45.950Z,43.33
2019-01-22T04:15:19.648Z,37.90
2019-01-22T04:17:53.736Z,47.53
2019-01-22T04:20:24.720Z,45.58
2019-01-22T04:23:05.357Z,40.73
2019-01-22T04:26:02.636Z,46.10
2019-01-22T04:28:51.690Z,44.73
2019-01-22T04:31:40.246Z,47.13
2019-01-22T04:34:51.464Z,39.70
2019-01-22T04:38:04.624Z,42.27
2019-01-22T04:40:54.193Z,42.83
2019-01-22T04:43:42.654Z,51.17
2019-01-22T04:46:46.592Z,44.73
2019-01-22T04:49:37.267Z,41.90
2019-01-22T04:52:15.649Z,43.90
2019-01-22T04:55:32.717Z,41.15
2019-01-22T04:58:40.382Z,44.45
2019-01-22T05:01:45.517Z,43.90
2019-01-22T05:05:04.356Z,40.17
2019-01-22T05:07:46.516Z,41.10
2019-01-22T05:11:01.076Z,41.63
2019-01-22T05:13:59.916Z,41.80
2019-01-22T05:17:15.198Z,43.50
2019-01-22T05:20:19.507Z,41.70
2019-01-22T05:23:27.810Z,40.73
2019-01-22T05:26:49.486Z,42.60
2019-01-22T05:30:02.429Z,43.67
2019-01-22T05:33:13.200Z,43.30
2019-01-22T05:36:09.558Z,41.67
2019-01-22T05:38:50.553Z,41.73
2019-01-22T05:41:51.845Z,42.17
2019-01-22T05:44:47.079Z,43.30
2019-01-22T05:47:52.258Z,41.97
2019-01-22T05:50:52.496Z,43.05
2019-01-22T05:54:00.116Z,43.40
2019-01-22T05:56:44.680Z,43.03
2019-01-22T05:59:36.793Z,43.33
2019-01-22T06:02:28.203Z,45.17
2019-01-22T06:05:33.750Z,44.30
2019-01-22T06:08:34.504Z,45.83
2019-01-22T06:11:57.141Z,47.37
2019-01-22T06:14:50.521Z,45.70
2019-01-22T06:17:45.621Z,46.27
2019-01-22T06:21:21.903Z,44.38
2019-01-22T06:24:33.691Z,44.20
2019-01-22T06:27:07.284Z,42.62
2019-01-22T06:30:09.320Z,43.47
2019-01-22T06:32:47.952Z,44.63
2019-01-22T06:35:30.945Z,42.60
2019-01-22T06:38:27.599Z,45.00
2019-01-22T06:41:17.685Z,43.70
2019-01-22T06:44:12.574Z,42.00
2019-01-22T06:47:07.985Z,41.53
2019-01-22T06:49:53.165Z,38.93
2019-01-22T06:53:05.167Z,41.33
2019-01-22T06:56:25.491Z,40.03
2019-01-22T06:59:19.537Z,37.77
2019-01-22T07:02:14.890Z,38.60
2019-01-22T07:05:14.612Z,36.00
2019-01-22T07:08:26.211Z,36.17
2019-01-22T07:11:38.652Z,38.20
2019-01-22T07:14:52.527Z,37.23
2019-01-22T07:17:35.427Z,36.70
2019-01-22T07:20:38.273Z,39.63
2019-01-22T07:23:27.405Z,40.60
2019-01-22T07:26:38.119Z,40.50
2019-01-22T07:29:53.452Z,40.53
2019-01-22T07:33:08.525Z,40.90
2019-01-22T07:36:11.872Z,40.77
2019-01-22T07:39:02.700Z,40.00
2019-01-22T07:42:10.380Z,39.30
2019-01-22T07:45:07.032Z,38.07
2019-01-22T07:48:09.617Z,41.90
2019-01-22T07:51:09.862Z,38.17
2019-01-22T07:53:57.972Z,38.87
2019-01-22T07:57:03.895Z,39.73
2019-01-22T08:00:09.069Z,36.23
2019-01-22T08:02:53.231Z,36.60
2019-01-22T08:06:25.181Z,33.93
2019-01-22T08:09:27.548Z,35.17
2019-01-22T08:12:47.089Z,32.60
2019-01-22T08:15:34.357Z,38.15
2019-01-22T08:18:58.882Z,37.00
2019-01-22T08:21:47.972Z,34.23
2019-01-22T08:24:51.400Z,35.90
2019-01-22T08:27:36.097Z,34.75
2019-01-22T08:30:35.685Z,37.40
2019-01-22T08:33:33.778Z,34.58
2019-01-22T08:36:46.995Z,33.30
2019-01-22T08:39:46.371Z,34.67
2019-01-22T08:43:02.365Z,33.83
2019-01-22T08:46:24.312Z,35.28
2019-01-22T08:49:19.012Z,35.77
2019-01-22T08:52:36.240Z,33.40
2019-01-22T08:55:42.422Z,33.97
2019-01-22T08:58:49.082Z,34.00
2019-01-22T09:01:43.461Z,33.00
2019-01-22T09:04:49.008Z,33.50
2019-01-22T09:07:49.444Z,35.80
2019-01-22T09:10:41.254Z,35.20
2019-01-22T09:13:39.361Z,36.97
2019-01-22T09:16:54.916Z,35.63
2019-01-22T09:19:47.681Z,32.57
2019-01-22T09:23:08.474Z,33.18
2019-01-22T09:26:03.889Z,30.97
2019-01-22T09:29:04.930Z,34.27
2019-01-22T09:32:07.024Z,33.28
2019-01-22T09:35:21.140Z,34.23
2019-01-22T09:37:56.596Z,33.20
2019-01-22T09:40:27.090Z,33.30
2019-01-22T09:42:56.672Z,36.03
2019-01-22T09:45:26.085Z,30.97
2019-01-22T09:47:55.600Z,34.00
2019-01-22T09:50:25.877Z,30.67
2019-01-22T09:52:55.479Z,32.07
2019-01-22T09:55:25.373Z,29.40
2019-01-22T09:57:57.411Z,31.27
2019-01-22T10:00:26.781Z,29.90
2019-01-22T10:02:56.241Z,29.47
2019-01-22T10:05:28.642Z,28.20
2019-01-22T10:07:58.086Z,30.75
2019-01-22T10:10:31.356Z,31.87
2019-01-22T10:13:00.736Z,29.43
2019-01-22T10:15:30.120Z,28.77
2019-01-22T10:17:59.509Z,27.93
2019-01-22T10:20:30.577Z,28.55
2019-01-22T10:22:59.948Z,26.77
2019-01-22T10:25:33.839Z,29.57
2019-01-22T10:28:04.640Z,25.87
2019-01-22T10:30:37.799Z,31.42
2019-01-22T10:33:07.856Z,28.25
2019-01-22T10:35:38.130Z,27.80
2019-01-22T10:38:07.504Z,26.30
2019-01-22T10:40:36.976Z,24.80
2019-01-22T10:43:09.357Z,26.53
2019-01-22T10:45:40.405Z,26.33
2019-01-22T10:48:10.862Z,26.63
2019-01-22T10:50:43.433Z,27.50
2019-01-22T10:53:12.732Z,26.47
2019-01-22T10:55:42.113Z,29.37
2019-01-22T10:58:11.664Z,27.43
2019-01-22T11:00:44.219Z,27.33
2019-01-22T11:03:13.732Z,29.27
2019-01-22T11:05:45.849Z,31.15
2019-01-22T11:08:16.251Z,28.92
2019-01-22T11:10:46.117Z,31.70
2019-01-22T11:13:17.833Z,30.80
2019-01-22T11:15:51.183Z,29.60
2019-01-22T11:18:23.252Z,30.17
2019-01-22T11:20:53.325Z,32.07
2019-01-22T11:23:22.720Z,29.60
2019-01-22T11:25:52.984Z,29.30
2019-01-22T11:28:26.406Z,30.92
2019-01-22T11:30:56.389Z,30.90
2019-01-22T11:33:26.497Z,28.60
2019-01-22T11:35:56.882Z,29.93
2019-01-22T11:38:31.979Z,31.20
2019-01-22T11:41:02.199Z,35.30
2019-01-22T11:43:33.522Z,29.82
2019-01-22T11:46:02.972Z,28.60
2019-01-22T11:48:34.741Z,30.50
2019-01-22T11:51:05.110Z,29.32
2019-01-22T11:53:36.070Z,30.02
2019-01-22T11:56:07.683Z,30.70
2019-01-22T11:58:37.012Z,30.50
2019-01-22T12:01:06.751Z,29.13
2019-01-22T12:03:37.040Z,27.57
2019-01-22T12:06:10.159Z,29.93
2019-01-22T12:08:42.541Z,32.40
2019-01-22T12:11:12.521Z,30.90
2019-01-22T12:13:46.549Z,28.70
2019-01-22T12:16:19.851Z,28.42
2019-01-22T12:18:49.481Z,29.00
2019-01-22T12:21:23.248Z,28.07
2019-01-22T12:23:52.632Z,30.20
2019-01-22T12:26:22.730Z,30.15
2019-01-22T12:28:52.097Z,28.15
2019-01-22T12:31:25.794Z,31.62
2019-01-22T12:34:02.012Z,31.23
2019-01-22T12:36:38.639Z,27.33
2019-01-22T12:39:11.358Z,27.60
2019-01-22T12:41:43.165Z,27.43
2019-01-22T12:44:14.607Z,27.00
2019-01-22T12:46:44.047Z,28.80
2019-01-22T12:49:13.436Z,29.10
2019-01-22T12:51:43.649Z,27.90
2019-01-22T12:54:15.594Z,27.30
2019-01-22T12:56:47.865Z,26.73
2019-01-22T12:59:19.007Z,28.07
2019-01-22T13:01:48.983Z,28.10
2019-01-22T13:04:18.326Z,22.30
2019-01-22T13:06:48.241Z,27.43
2019-01-22T13:09:22.050Z,26.97
2019-01-22T13:11:51.904Z,28.10
2019-01-22T13:14:21.340Z,29.20
2019-01-22T13:16:51.056Z,26.37
2019-01-22T13:19:20.578Z,27.23
2019-01-22T13:21:51.031Z,28.40
2019-01-22T13:24:21.632Z,27.70
2019-01-22T13:26:51.964Z,26.80
2019-01-22T13:29:21.317Z,32.17
2019-01-22T13:31:50.988Z,27.97
2019-01-22T13:34:22.808Z,28.90
2019-01-22T13:36:55.768Z,28.20
2019-01-22T13:39:27.740Z,28.70
2019-01-22T13:41:57.401Z,29.63
2019-01-22T13:44:26.838Z,30.20
2019-01-22T13:47:00.975Z,28.80
2019-01-22T13:49:30.354Z,29.23
2019-01-22T13:52:00.409Z,28.98
2019-01-22T13:54:34.865Z,28.47
2019-01-22T13:57:05.110Z,27.77
2019-01-22T13:59:35.054Z,28.07
2019-01-22T14:02:04.702Z,27.07
2019-01-22T14:04:34.140Z,27.20
2019-01-22T14:07:03.897Z,29.17
2019-01-22T14:09:33.569Z,29.57
2019-01-22T14:12:03.064Z,31.50
2019-01-22T14:14:32.504Z,28.85
2019-01-22T14:17:02.262Z,29.10
2019-01-22T14:19:35.873Z,29.77
2019-01-22T14:22:06.500Z,29.97
2019-01-22T14:24:35.816Z,30.20
2019-01-22T14:27:05.460Z,27.40
2019-01-22T14:29:37.160Z,33.15
2019-01-22T14:32:06.585Z,35.03
2019-01-22T14:34:38.845Z,52.30
2019-01-22T14:37:16.683Z,31.77
2019-01-22T14:39:51.849Z,30.43
2019-01-22T14:42:26.550Z,31.87
2019-01-22T14:44:55.957Z,32.90
2019-01-22T14:47:25.356Z,29.67
2019-01-22T14:49:56.070Z,31.47
2019-01-22T14:52:27.420Z,31.20
2019-01-22T14:54:56.805Z,31.23
2019-01-22T14:57:26.991Z,30.53
2019-01-22T14:59:56.552Z,31.37
2019-01-22T15:02:26.113Z,31.10
2019-01-22T15:04:55.743Z,30.80
2019-01-22T15:07:25.474Z,31.20
2019-01-22T15:09:55.029Z,30.87
2019-01-22T15:12:24.425Z,30.23
2019-01-22T15:14:54.334Z,29.53
2019-01-22T15:17:24.697Z,33.70
2019-01-22T15:19:56.942Z,32.47
2019-01-22T15:22:27.341Z,31.27
2019-01-22T15:24:57.545Z,32.93
2019-01-22T15:27:26.917Z,31.45
2019-01-22T15:29:56.812Z,30.63
2019-01-22T15:32:26.310Z,31.30
2019-01-22T15:34:55.686Z,32.07
2019-01-22T15:37:25.127Z,30.88
2019-01-22T15:39:56.486Z,30.87
2019-01-22T15:42:25.985Z,28.90
2019-01-22T15:44:56.593Z,33.27
2019-01-22T15:47:25.909Z,28.17
2019-01-22T15:49:56.272Z,33.80
2019-01-22T15:52:25.835Z,36.65
2019-01-22T15:54:55.209Z,29.73
2019-01-22T15:57:24.617Z,32.78
2019-01-22T15:59:54.547Z,48.97
2019-01-22T16:02:23.953Z,36.28
2019-01-22T16:04:54.115Z,31.33
2019-01-22T16:07:24.261Z,30.77
2019-01-22T16:09:53.612Z,32.37
2019-01-22T16:12:22.998Z,31.27
2019-01-22T16:14:55.877Z,27.10
2019-01-22T16:17:29.349Z,31.65
2019-01-22T16:19:58.712Z,32.50
2019-01-22T16:22:31.343Z,31.55
2019-01-22T16:25:00.798Z,31.57
2019-01-22T16:27:33.540Z,31.70
2019-01-22T16:30:05.889Z,31.40
2019-01-22T16:32:39.531Z,31.05
2019-01-22T16:35:10.856Z,30.40
2019-01-22T16:37:49.433Z,31.20
2019-01-22T16:40:19.209Z,31.03
2019-01-22T16:42:49.059Z,32.53
2019-01-22T16:45:21.949Z,30.92
2019-01-22T16:47:51.472Z,31.27
2019-01-22T16:50:22.186Z,30.67
2019-01-22T16:52:54.014Z,28.53
2019-01-22T16:55:31.553Z,32.20
2019-01-22T16:58:00.948Z,29.65
2019-01-22T17:00:35.656Z,31.07
2019-01-22T17:03:06.495Z,30.20
2019-01-22T17:05:35.929Z,30.27
2019-01-22T17:08:06.444Z,31.50
2019-01-22T17:10:36.569Z,30.80
2019-01-22T17:13:08.688Z,32.57
2019-01-22T17:15:38.633Z,32.30
2019-01-22T17:18:13.293Z,32.27
2019-01-22T17:20:47.802Z,33.30
2019-01-22T17:23:16.625Z,31.47
2019-01-22T17:25:44.877Z,32.33
2019-01-22T17:28:15.584Z,31.70
2019-01-22T17:30:45.850Z,32.27
2019-01-22T17:33:32.275Z,31.80
2019-01-22T17:36:01.746Z,33.57
2019-01-22T17:38:31.173Z,30.37
2019-01-22T17:41:01.284Z,34.97
2019-01-22T17:43:30.684Z,33.93
2019-01-22T17:46:00.533Z,36.33
2019-01-22T17:48:30.004Z,35.77
2019-01-22T17:51:02.023Z,33.47
2019-01-22T17:53:31.388Z,38.60
2019-01-22T17:56:00.829Z,35.87
2019-01-22T17:58:30.353Z,34.92
2019-01-22T18:01:02.714Z,39.20
2019-01-22T18:03:32.140Z,35.97
2019-01-22T18:06:01.525Z,35.17
2019-01-22T18:08:31.032Z,34.97
2019-01-22T18:11:00.425Z,36.33
2019-01-22T18:13:29.889Z,36.70
2019-01-22T18:15:59.509Z,34.70
2019-01-22T18:18:29.587Z,38.17
2019-01-22T18:21:00.396Z,36.50
2019-01-22T18:23:31.914Z,31.40
2019-01-22T18:26:01.317Z,37.60
2019-01-22T18:28:31.008Z,37.33
2019-01-22T18:31:00.452Z,36.20
2019-01-22T18:33:33.050Z,38.80
2019-01-22T18:36:04.064Z,40.80
2019-01-22T18:38:38.039Z,38.40
2019-01-22T18:41:07.429Z,35.00
2019-01-22T18:43:40.902Z,38.13
2019-01-22T18:46:13.686Z,40.47
2019-01-22T18:48:43.052Z,39.27
2019-01-22T18:51:15.433Z,39.80
2019-01-22T18:53:47.172Z,38.53
2019-01-22T18:56:17.290Z,40.17
2019-01-22T18:58:48.593Z,39.10
2019-01-22T19:01:18.838Z,37.77
2019-01-22T19:03:48.472Z,36.57
2019-01-22T19:06:21.162Z,38.45
2019-01-22T19:08:51.668Z,34.87
2019-01-22T19:11:21.756Z,35.50
2019-01-22T19:13:53.899Z,33.63
2019-01-22T19:16:26.610Z,33.35
2019-01-22T19:18:55.973Z,32.40
2019-01-22T19:21:29.581Z,30.70
2019-01-22T19:23:59.592Z,25.53
2019-01-22T19:26:29.493Z,33.35
2019-01-22T19:29:00.523Z,37.40
2019-01-22T19:31:31.106Z,32.85
2019-01-22T19:34:03.254Z,38.37
2019-01-22T19:36:37.830Z,43.50
2019-01-22T19:39:13.620Z,38.13
2019-01-22T19:41:43.685Z,36.70
2019-01-22T19:44:13.400Z,35.83
2019-01-22T19:46:42.836Z,35.37
2019-01-22T19:49:13.628Z,37.10
2019-01-22T19:51:43.105Z,35.60
2019-01-22T19:54:12.584Z,33.40
2019-01-22T19:56:42.026Z,31.80
2019-01-22T19:59:11.600Z,35.70
2019-01-22T20:01:41.609Z,37.20
2019-01-22T20:04:11.074Z,36.60
2019-01-22T20:06:41.086Z,37.37
2019-01-22T20:09:11.596Z,33.47
2019-01-22T20:11:41.027Z,35.77
2019-01-22T20:14:10.573Z,38.17
2019-01-22T20:16:44.409Z,38.87
2019-01-22T20:19:13.792Z,36.17
2019-01-22T20:21:44.054Z,36.20
2019-01-22T20:24:17.004Z,36.40
2019-01-22T20:26:44.974Z,34.77
2019-01-22T20:29:14.760Z,31.70
2019-01-22T20:31:46.786Z,35.30
2019-01-22T20:34:17.257Z,33.87
2019-01-22T20:36:46.718Z,32.40
2019-01-22T20:39:17.749Z,35.28
2019-01-22T20:41:47.265Z,38.98
2019-01-22T20:44:18.520Z,34.27
2019-01-22T20:46:48.420Z,32.33
2019-01-22T20:49:19.763Z,33.25
2019-01-22T20:51:50.014Z,35.17
2019-01-22T20:54:21.500Z,38.50
2019-01-22T20:56:53.694Z,34.77
2019-01-22T20:59:23.909Z,37.00
2019-01-22T21:01:54.125Z,36.90
2019-01-22T21:04:25.165Z,36.95
2019-01-22T21:06:55.149Z,35.50
2019-01-22T21:09:25.286Z,35.60
2019-01-22T21:11:54.871Z,33.97
2019-01-22T21:14:24.299Z,35.43
2019-01-22T21:16:53.789Z,35.67
2019-01-22T21:19:23.745Z,33.07
2019-01-22T21:21:53.244Z,34.90
2019-01-22T21:24:23.190Z,35.50
2019-01-22T21:26:54.555Z,32.80
2019-01-22T21:29:24.097Z,29.92
2019-01-22T21:31:54.919Z,34.07
2019-01-22T21:34:24.298Z,36.97
2019-01-22T21:36:55.260Z,36.17
2019-01-22T21:39:28.835Z,36.45
2019-01-22T21:41:58.485Z,36.03
2019-01-22T21:44:27.964Z,32.53
2019-01-22T21:46:59.563Z,33.60
2019-01-22T21:49:31.820Z,34.43
2019-01-22T21:52:03.846Z,35.20
2019-01-22T21:54:34.201Z,32.25
2019-01-22T21:57:05.482Z,30.83
2019-01-22T21:59:38.007Z,30.57
2019-01-22T22:02:10.198Z,33.20
2019-01-22T22:04:44.506Z,33.10
2019-01-22T22:07:17.292Z,29.17
2019-01-22T22:09:46.976Z,33.53
2019-01-22T22:12:18.553Z,31.90
2019-01-22T22:14:52.767Z,31.10
2019-01-22T22:17:24.205Z,30.60
2019-01-22T22:19:53.501Z,31.90
2019-01-22T22:22:24.394Z,32.03
2019-01-22T22:24:59.001Z,31.20
2019-01-22T22:27:35.384Z,30.95
2019-01-22T22:30:07.212Z,29.07
2019-01-22T22:32:37.027Z,28.60
2019-01-22T22:35:10.325Z,31.23
2019-01-22T22:37:39.735Z,26.60
2019-01-22T22:40:10.259Z,27.07
2019-01-22T22:42:40.575Z,30.10
2019-01-22T22:45:14.046Z,31.97
2019-01-22T22:47:45.812Z,33.03
2019-01-22T22:50:21.461Z,29.32
2019-01-22T22:52:52.671Z,26.23
2019-01-22T22:55:25.093Z,25.70
2019-01-22T22:57:57.771Z,31.77
2019-01-22T23:00:58.260Z,30.00
2019-01-22T23:03:27.892Z,28.20
2019-01-22T23:05:57.485Z,31.07
2019-01-22T23:08:32.394Z,30.30
2019-01-22T23:11:01.498Z,29.40
2019-01-22T23:13:31.272Z,30.77
2019-01-22T23:16:01.168Z,31.43
2019-01-22T23:18:34.202Z,31.33
2019-01-22T23:21:05.454Z,30.57
2019-01-22T23:23:37.368Z,33.10
2019-01-22T23:26:06.972Z,29.20
2019-01-22T23:28:36.361Z,29.23
2019-01-22T23:31:05.793Z,33.00
2019-01-22T23:33:35.189Z,33.13
2019-01-22T23:36:08.104Z,32.63
2019-01-22T23:38:39.357Z,33.20
2019-01-22T23:41:10.517Z,31.03
2019-01-22T23:43:43.146Z,29.40
2019-01-22T23:46:12.544Z,31.03
2019-01-22T23:48:42.130Z,28.93
2019-01-22T23:51:13.619Z,29.23
2019-01-22T23:53:44.317Z,30.43
2019-01-22T23:56:15.420Z,29.00
2019-01-22T23:58:45.052Z,31.10
